Terminal Aerodrome Forecast
Issued by NWS Cleveland, OH

Home | Current Version | Previous Version | Text Only | Print | Product List | Glossary Off
Versions: 1 2 3 4 5 6 7 8 9 10 11 12 13 14

000
FTUS41 KCLE 220538
TAFCAK
TAF
KCAK 220538Z 2206/2306 10004KT P6SM SCT070 BKN150
     FM221400 18008KT P6SM BKN060 OVC100
     FM221600 21012KT P6SM SCT050 BKN120=

USA.gov is the U.S. government's official web portal to all federal, state and local government web resources and services.